sensor_id;sensor_type;location;lat;lon;timestamp;pressure;altitude;pressure_sealevel;temperature;humidity
82458;BME280;72081;48.870;11.074;2023-08-31T00:03:01;96635.16;;;13.01;89.01
82458;BME280;72081;48.870;11.074;2023-08-31T00:05:26;96635.94;;;12.96;89.21
82458;BME280;72081;48.870;11.074;2023-08-31T00:07:54;96637.72;;;12.86;89.33
82458;BME280;72081;48.870;11.074;2023-08-31T00:10:19;96634.16;;;12.70;90.39
82458;BME280;72081;48.870;11.074;2023-08-31T00:12:44;96631.00;;;12.78;90.52
82458;BME280;72081;48.870;11.074;2023-08-31T00:15:10;96641.75;;;12.83;89.54
82458;BME280;72081;48.870;11.074;2023-08-31T00:17:35;96639.06;;;12.83;90.32
82458;BME280;72081;48.870;11.074;2023-08-31T00:20:01;96641.22;;;12.86;90.09
82458;BME280;72081;48.870;11.074;2023-08-31T00:22:26;96646.31;;;12.88;89.87
82458;BME280;72081;48.870;11.074;2023-08-31T00:24:51;96653.81;;;12.91;89.91
82458;BME280;72081;48.870;11.074;2023-08-31T00:27:18;96647.19;;;12.93;90.76
82458;BME280;72081;48.870;11.074;2023-08-31T00:29:43;96640.69;;;12.84;89.31
82458;BME280;72081;48.870;11.074;2023-08-31T00:32:14;96657.56;;;12.90;90.14
82458;BME280;72081;48.870;11.074;2023-08-31T00:34:39;96656.50;;;12.91;89.89
82458;BME280;72081;48.870;11.074;2023-08-31T00:37:05;96647.06;;;12.78;89.75
82458;BME280;72081;48.870;11.074;2023-08-31T00:39:30;96653.78;;;12.81;90.58
82458;BME280;72081;48.870;11.074;2023-08-31T00:41:56;96651.97;;;12.91;91.02
82458;BME280;72081;48.870;11.074;2023-08-31T00:44:21;96651.72;;;12.93;90.37
82458;BME280;72081;48.870;11.074;2023-08-31T00:46:47;96658.97;;;12.97;90.28
82458;BME280;72081;48.870;11.074;2023-08-31T00:49:12;96647.66;;;12.90;90.45
82458;BME280;72081;48.870;11.074;2023-08-31T00:51:39;96647.47;;;12.97;89.97
82458;BME280;72081;48.870;11.074;2023-08-31T00:54:05;96645.88;;;13.01;90.19
82458;BME280;72081;48.870;11.074;2023-08-31T00:56:31;96656.06;;;13.04;91.08
82458;BME280;72081;48.870;11.074;2023-08-31T00:58:56;96647.75;;;13.05;89.65
82458;BME280;72081;48.870;11.074;2023-08-31T01:15:11;96648.53;;;13.01;89.44
82458;BME280;72081;48.870;11.074;2023-08-31T01:17:42;96651.78;;;13.08;90.08
82458;BME280;72081;48.870;11.074;2023-08-31T01:20:10;96644.56;;;13.08;90.32
82458;BME280;72081;48.870;11.074;2023-08-31T01:22:43;96658.81;;;13.14;90.15
82458;BME280;72081;48.870;11.074;2023-08-31T01:25:13;96653.91;;;13.06;89.70
82458;BME280;72081;48.870;11.074;2023-08-31T01:27:38;96654.44;;;13.03;89.62
82458;BME280;72081;48.870;11.074;2023-08-31T01:30:05;96650.41;;;12.95;89.62
82458;BME280;72081;48.870;11.074;2023-08-31T01:32:31;96654.84;;;12.80;89.76
82458;BME280;72081;48.870;11.074;2023-08-31T01:34:56;96654.28;;;12.77;91.09
82458;BME280;72081;48.870;11.074;2023-08-31T01:37:36;96659.97;;;12.86;90.30
82458;BME280;72081;48.870;11.074;2023-08-31T01:40:36;96656.22;;;12.87;90.69
82458;BME280;72081;48.870;11.074;2023-08-31T01:43:04;96648.41;;;12.75;90.72
82458;BME280;72081;48.870;11.074;2023-08-31T01:45:32;96651.00;;;12.70;91.17
82458;BME280;72081;48.870;11.074;2023-08-31T01:47:59;96635.47;;;12.67;90.63
82458;BME280;72081;48.870;11.074;2023-08-31T01:50:25;96644.59;;;12.71;90.84
82458;BME280;72081;48.870;11.074;2023-08-31T01:52:51;96643.84;;;12.76;90.82
82458;BME280;72081;48.870;11.074;2023-08-31T01:55:18;96655.94;;;12.84;91.71
82458;BME280;72081;48.870;11.074;2023-08-31T01:57:43;96665.88;;;12.88;90.94
82458;BME280;72081;48.870;11.074;2023-08-31T02:00:10;96670.69;;;12.91;90.68
82458;BME280;72081;48.870;11.074;2023-08-31T02:02:36;96669.09;;;12.90;90.21
82458;BME280;72081;48.870;11.074;2023-08-31T02:05:02;96665.13;;;12.98;90.84
82458;BME280;72081;48.870;11.074;2023-08-31T02:07:29;96669.94;;;12.96;90.49
82458;BME280;72081;48.870;11.074;2023-08-31T02:09:54;96671.03;;;12.95;90.33
82458;BME280;72081;48.870;11.074;2023-08-31T02:12:19;96661.38;;;12.94;90.27
82458;BME280;72081;48.870;11.074;2023-08-31T02:14:45;96667.22;;;12.91;90.70
82458;BME280;72081;48.870;11.074;2023-08-31T02:17:10;96671.03;;;12.95;90.54
82458;BME280;72081;48.870;11.074;2023-08-31T02:19:35;96674.25;;;12.97;90.81
82458;BME280;72081;48.870;11.074;2023-08-31T02:22:00;96679.59;;;12.97;90.54
82458;BME280;72081;48.870;11.074;2023-08-31T02:24:26;96684.16;;;12.96;91.04
82458;BME280;72081;48.870;11.074;2023-08-31T02:26:51;96679.59;;;12.97;90.64
82458;BME280;72081;48.870;11.074;2023-08-31T02:29:17;96687.13;;;13.00;90.51
82458;BME280;72081;48.870;11.074;2023-08-31T02:31:42;96690.59;;;13.00;90.60
82458;BME280;72081;48.870;11.074;2023-08-31T02:34:07;96689.50;;;12.96;89.50
82458;BME280;72081;48.870;11.074;2023-08-31T02:36:33;96692.38;;;12.90;90.31
82458;BME280;72081;48.870;11.074;2023-08-31T02:38:58;96693.44;;;12.89;90.48
82458;BME280;72081;48.870;11.074;2023-08-31T02:41:23;96694.56;;;12.93;90.28
82458;BME280;72081;48.870;11.074;2023-08-31T02:43:51;96700.97;;;12.92;89.69
82458;BME280;72081;48.870;11.074;2023-08-31T02:46:17;96698.53;;;12.85;89.32
82458;BME280;72081;48.870;11.074;2023-08-31T02:48:43;96700.06;;;12.76;89.67
82458;BME280;72081;48.870;11.074;2023-08-31T02:51:48;96704.06;;;12.73;89.81
82458;BME280;72081;48.870;11.074;2023-08-31T02:54:14;96701.13;;;12.75;90.44
82458;BME280;72081;48.870;11.074;2023-08-31T02:56:39;96688.56;;;12.75;89.73
82458;BME280;72081;48.870;11.074;2023-08-31T02:59:05;96688.03;;;12.79;89.49
82458;BME280;72081;48.870;11.074;2023-08-31T03:01:30;96701.97;;;12.81;89.47
82458;BME280;72081;48.870;11.074;2023-08-31T03:03:55;96709.72;;;12.77;89.51
82458;BME280;72081;48.870;11.074;2023-08-31T03:06:21;96709.72;;;12.77;89.96
82458;BME280;72081;48.870;11.074;2023-08-31T03:08:46;96711.28;;;12.73;89.41
82458;BME280;72081;48.870;11.074;2023-08-31T03:11:11;96716.34;;;12.69;90.31
82458;BME280;72081;48.870;11.074;2023-08-31T03:13:39;96722.16;;;12.61;89.38
82458;BME280;72081;48.870;11.074;2023-08-31T03:16:04;96728.31;;;12.62;89.32
82458;BME280;72081;48.870;11.074;2023-08-31T03:18:29;96730.09;;;12.51;87.73
82458;BME280;72081;48.870;11.074;2023-08-31T03:20:55;96736.50;;;12.50;88.13
82458;BME280;72081;48.870;11.074;2023-08-31T03:23:20;96723.44;;;12.54;88.32
82458;BME280;72081;48.870;11.074;2023-08-31T03:25:46;96732.47;;;12.48;88.03
82458;BME280;72081;48.870;11.074;2023-08-31T03:28:11;96731.41;;;12.49;88.13
82458;BME280;72081;48.870;11.074;2023-08-31T03:30:37;96724.75;;;12.51;88.17
82458;BME280;72081;48.870;11.074;2023-08-31T03:33:02;96727.56;;;12.34;88.02
82458;BME280;72081;48.870;11.074;2023-08-31T03:35:28;96736.69;;;12.38;89.02
82458;BME280;72081;48.870;11.074;2023-08-31T03:37:54;96728.91;;;12.37;87.67
82458;BME280;72081;48.870;11.074;2023-08-31T03:40:19;96736.38;;;12.35;88.59
82458;BME280;72081;48.870;11.074;2023-08-31T03:42:45;96743.59;;;12.34;88.56
82458;BME280;72081;48.870;11.074;2023-08-31T03:45:10;96742.63;;;12.19;87.54
82458;BME280;72081;48.870;11.074;2023-08-31T03:47:36;96736.41;;;12.13;87.25
82458;BME280;72081;48.870;11.074;2023-08-31T03:50:01;96743.88;;;12.11;89.00
82458;BME280;72081;48.870;11.074;2023-08-31T03:52:26;96741.28;;;12.16;88.99
82458;BME280;72081;48.870;11.074;2023-08-31T03:54:52;96754.94;;;12.20;87.61
82458;BME280;72081;48.870;11.074;2023-08-31T03:57:17;96760.97;;;12.10;88.13
82458;BME280;72081;48.870;11.074;2023-08-31T03:59:43;96752.88;;;12.00;87.60
82458;BME280;72081;48.870;11.074;2023-08-31T04:02:08;96753.38;;;11.97;88.14
82458;BME280;72081;48.870;11.074;2023-08-31T04:04:33;96746.06;;;11.92;88.28
82458;BME280;72081;48.870;11.074;2023-08-31T04:06:59;96757.28;;;11.89;88.28
82458;BME280;72081;48.870;11.074;2023-08-31T04:09:24;96772.91;;;11.97;88.79
82458;BME280;72081;48.870;11.074;2023-08-31T04:11:50;96767.84;;;12.01;87.83
82458;BME280;72081;48.870;11.074;2023-08-31T04:14:15;96774.94;;;11.90;87.46
82458;BME280;72081;48.870;11.074;2023-08-31T04:16:40;96783.16;;;11.83;88.08
82458;BME280;72081;48.870;11.074;2023-08-31T04:19:05;96783.94;;;11.84;88.35
82458;BME280;72081;48.870;11.074;2023-08-31T04:21:31;96786.16;;;11.70;86.61
82458;BME280;72081;48.870;11.074;2023-08-31T04:23:56;96775.00;;;11.56;88.16
82458;BME280;72081;48.870;11.074;2023-08-31T04:26:21;96775.66;;;11.64;88.70
82458;BME280;72081;48.870;11.074;2023-08-31T04:28:46;96783.66;;;11.64;87.82
82458;BME280;72081;48.870;11.074;2023-08-31T04:31:12;96789.41;;;11.55;88.28
82458;BME280;72081;48.870;11.074;2023-08-31T04:33:38;96788.34;;;11.56;87.79
82458;BME280;72081;48.870;11.074;2023-08-31T04:36:04;96797.38;;;11.50;87.62
82458;BME280;72081;48.870;11.074;2023-08-31T04:38:34;96814.22;;;11.51;88.00
82458;BME280;72081;48.870;11.074;2023-08-31T04:41:00;96812.78;;;11.27;88.79
82458;BME280;72081;48.870;11.074;2023-08-31T04:43:26;96807.59;;;11.37;88.73
82458;BME280;72081;48.870;11.074;2023-08-31T04:45:52;96817.25;;;11.38;88.86
82458;BME280;72081;48.870;11.074;2023-08-31T04:48:18;96811.56;;;11.34;87.74
82458;BME280;72081;48.870;11.074;2023-08-31T04:50:43;96816.56;;;11.47;88.83
82458;BME280;72081;48.870;11.074;2023-08-31T04:53:08;96817.38;;;11.48;86.85
82458;BME280;72081;48.870;11.074;2023-08-31T04:55:34;96824.09;;;11.50;87.06
82458;BME280;72081;48.870;11.074;2023-08-31T04:57:59;96827.88;;;11.54;87.08
82458;BME280;72081;48.870;11.074;2023-08-31T05:00:24;96827.97;;;11.60;86.70
82458;BME280;72081;48.870;11.074;2023-08-31T05:02:49;96825.06;;;11.61;88.49
82458;BME280;72081;48.870;11.074;2023-08-31T05:05:15;96827.28;;;11.69;86.96
82458;BME280;72081;48.870;11.074;2023-08-31T05:07:40;96822.13;;;11.63;87.64
82458;BME280;72081;48.870;11.074;2023-08-31T05:10:06;96823.69;;;11.59;87.23
82458;BME280;72081;48.870;11.074;2023-08-31T05:12:32;96820.16;;;11.75;87.87
82458;BME280;72081;48.870;11.074;2023-08-31T05:14:57;96824.63;;;11.86;86.66
82458;BME280;72081;48.870;11.074;2023-08-31T05:17:22;96824.97;;;11.95;86.44
82458;BME280;72081;48.870;11.074;2023-08-31T05:19:47;96841.13;;;12.00;87.10
82458;BME280;72081;48.870;11.074;2023-08-31T05:22:13;96843.22;;;11.98;86.90
82458;BME280;72081;48.870;11.074;2023-08-31T05:24:39;96848.75;;;11.91;86.41
82458;BME280;72081;48.870;11.074;2023-08-31T05:27:04;96846.06;;;12.84;85.55
82458;BME280;72081;48.870;11.074;2023-08-31T05:29:29;96845.34;;;14.05;80.53
82458;BME280;72081;48.870;11.074;2023-08-31T05:31:55;96853.75;;;15.11;76.34
82458;BME280;72081;48.870;11.074;2023-08-31T05:34:24;96846.75;;;15.61;72.92
82458;BME280;72081;48.870;11.074;2023-08-31T05:36:50;96857.88;;;16.34;70.39
82458;BME280;72081;48.870;11.074;2023-08-31T05:40:35;96861.00;;;16.57;68.78
82458;BME280;72081;48.870;11.074;2023-08-31T05:43:01;96868.25;;;15.92;69.57
82458;BME280;72081;48.870;11.074;2023-08-31T05:45:27;96869.19;;;16.42;69.51
82458;BME280;72081;48.870;11.074;2023-08-31T05:47:53;96878.59;;;17.04;65.90
82458;BME280;72081;48.870;11.074;2023-08-31T05:50:18;96880.47;;;17.42;66.22
82458;BME280;72081;48.870;11.074;2023-08-31T05:52:43;96874.69;;;17.54;64.09
82458;BME280;72081;48.870;11.074;2023-08-31T05:55:12;96877.88;;;17.61;64.31
82458;BME280;72081;48.870;11.074;2023-08-31T05:57:37;96879.19;;;17.98;62.89
82458;BME280;72081;48.870;11.074;2023-08-31T06:00:04;96878.06;;;18.28;62.79
82458;BME280;72081;48.870;11.074;2023-08-31T06:02:30;96884.19;;;18.81;59.94
82458;BME280;72081;48.870;11.074;2023-08-31T06:04:56;96887.38;;;18.64;62.46
82458;BME280;72081;48.870;11.074;2023-08-31T06:07:21;96885.59;;;19.16;59.12
82458;BME280;72081;48.870;11.074;2023-08-31T06:09:46;96884.06;;;19.10;61.18
82458;BME280;72081;48.870;11.074;2023-08-31T06:12:12;96876.59;;;19.21;60.29
82458;BME280;72081;48.870;11.074;2023-08-31T06:14:37;96879.38;;;19.16;60.96
82458;BME280;72081;48.870;11.074;2023-08-31T06:17:02;96875.78;;;18.83;60.82
82458;BME280;72081;48.870;11.074;2023-08-31T06:19:28;96871.72;;;18.61;62.38
82458;BME280;72081;48.870;11.074;2023-08-31T06:21:53;96879.00;;;18.85;62.35
82458;BME280;72081;48.870;11.074;2023-08-31T06:24:18;96877.09;;;18.85;62.07
82458;BME280;72081;48.870;11.074;2023-08-31T06:26:43;96886.25;;;18.70;61.91
82458;BME280;72081;48.870;11.074;2023-08-31T06:29:09;96884.28;;;18.76;62.46
82458;BME280;72081;48.870;11.074;2023-08-31T06:31:36;96867.25;;;18.75;60.98
82458;BME280;72081;48.870;11.074;2023-08-31T06:34:01;96871.56;;;18.29;64.23
82458;BME280;72081;48.870;11.074;2023-08-31T06:36:27;96864.38;;;18.67;63.60
82458;BME280;72081;48.870;11.074;2023-08-31T06:38:52;96860.81;;;18.90;60.26
82458;BME280;72081;48.870;11.074;2023-08-31T06:41:17;96879.16;;;18.93;61.53
82458;BME280;72081;48.870;11.074;2023-08-31T06:43:43;96876.91;;;19.19;61.25
82458;BME280;72081;48.870;11.074;2023-08-31T06:46:08;96888.06;;;19.50;60.59
82458;BME280;72081;48.870;11.074;2023-08-31T06:48:33;96883.69;;;18.55;62.61
82458;BME280;72081;48.870;11.074;2023-08-31T06:50:59;96894.44;;;16.61;68.40
82458;BME280;72081;48.870;11.074;2023-08-31T06:53:24;96903.38;;;17.06;70.06
82458;BME280;72081;48.870;11.074;2023-08-31T06:55:49;96911.91;;;16.79;68.05
82458;BME280;72081;48.870;11.074;2023-08-31T06:58:15;96916.72;;;16.82;68.46
82458;BME280;72081;48.870;11.074;2023-08-31T07:00:40;96915.25;;;17.44;67.56
82458;BME280;72081;48.870;11.074;2023-08-31T07:03:05;96920.00;;;17.23;67.68
82458;BME280;72081;48.870;11.074;2023-08-31T07:05:34;96920.53;;;16.71;67.90
82458;BME280;72081;48.870;11.074;2023-08-31T07:08:00;96910.06;;;16.54;69.45
82458;BME280;72081;48.870;11.074;2023-08-31T07:10:27;96912.28;;;17.45;65.38
82458;BME280;72081;48.870;11.074;2023-08-31T07:12:52;96912.97;;;17.95;65.76
82458;BME280;72081;48.870;11.074;2023-08-31T07:15:17;96918.06;;;18.26;64.62
82458;BME280;72081;48.870;11.074;2023-08-31T07:17:43;96923.13;;;18.32;63.31
82458;BME280;72081;48.870;11.074;2023-08-31T07:20:08;96929.94;;;18.54;63.35
82458;BME280;72081;48.870;11.074;2023-08-31T07:22:34;96922.22;;;18.66;62.25
82458;BME280;72081;48.870;11.074;2023-08-31T07:25:00;96921.72;;;18.64;63.10
82458;BME280;72081;48.870;11.074;2023-08-31T07:27:25;96923.50;;;18.73;62.25
82458;BME280;72081;48.870;11.074;2023-08-31T07:29:50;96929.34;;;18.33;62.29
82458;BME280;72081;48.870;11.074;2023-08-31T07:32:16;96937.31;;;17.51;64.63
82458;BME280;72081;48.870;11.074;2023-08-31T07:34:41;96941.25;;;16.75;68.09
82458;BME280;72081;48.870;11.074;2023-08-31T07:37:06;96943.81;;;16.31;69.18
82458;BME280;72081;48.870;11.074;2023-08-31T07:39:32;96943.56;;;16.22;69.38
82458;BME280;72081;48.870;11.074;2023-08-31T07:41:57;96945.72;;;16.20;69.63
82458;BME280;72081;48.870;11.074;2023-08-31T07:44:24;96948.06;;;16.52;68.59
82458;BME280;72081;48.870;11.074;2023-08-31T07:46:49;96957.50;;;16.45;70.60
82458;BME280;72081;48.870;11.074;2023-08-31T07:49:15;96959.19;;;16.15;69.96
82458;BME280;72081;48.870;11.074;2023-08-31T07:51:40;96951.09;;;16.15;71.36
82458;BME280;72081;48.870;11.074;2023-08-31T07:54:05;96945.34;;;16.57;70.74
82458;BME280;72081;48.870;11.074;2023-08-31T07:56:30;96947.59;;;17.49;67.43
82458;BME280;72081;48.870;11.074;2023-08-31T07:58:56;96957.44;;;17.29;66.55
82458;BME280;72081;48.870;11.074;2023-08-31T08:01:21;96965.47;;;16.85;68.54
82458;BME280;72081;48.870;11.074;2023-08-31T08:03:46;96959.59;;;16.73;67.06
82458;BME280;72081;48.870;11.074;2023-08-31T08:06:12;96975.31;;;16.41;66.68
82458;BME280;72081;48.870;11.074;2023-08-31T08:08:37;96972.94;;;16.03;67.19
82458;BME280;72081;48.870;11.074;2023-08-31T08:11:04;96979.13;;;15.89;68.88
82458;BME280;72081;48.870;11.074;2023-08-31T08:13:29;96975.91;;;15.92;70.52
82458;BME280;72081;48.870;11.074;2023-08-31T08:15:55;96975.09;;;15.76;71.01
82458;BME280;72081;48.870;11.074;2023-08-31T08:18:20;96982.34;;;15.75;69.89
82458;BME280;72081;48.870;11.074;2023-08-31T08:20:50;96973.47;;;15.70;69.32
82458;BME280;72081;48.870;11.074;2023-08-31T08:23:16;96977.50;;;15.72;70.14
82458;BME280;72081;48.870;11.074;2023-08-31T08:25:41;96985.84;;;16.06;69.89
82458;BME280;72081;48.870;11.074;2023-08-31T08:29:22;96980.97;;;16.19;68.40
82458;BME280;72081;48.870;11.074;2023-08-31T08:31:48;96972.63;;;16.41;67.23
82458;BME280;72081;48.870;11.074;2023-08-31T08:34:13;96977.91;;;16.66;67.44
82458;BME280;72081;48.870;11.074;2023-08-31T08:36:38;96982.97;;;16.98;66.21
82458;BME280;72081;48.870;11.074;2023-08-31T08:39:03;96990.25;;;16.97;65.12
82458;BME280;72081;48.870;11.074;2023-08-31T08:41:29;96993.81;;;16.73;68.07
82458;BME280;72081;48.870;11.074;2023-08-31T08:44:01;97002.75;;;16.37;65.74
82458;BME280;72081;48.870;11.074;2023-08-31T08:46:27;96999.00;;;16.18;66.71
82458;BME280;72081;48.870;11.074;2023-08-31T08:48:53;96992.84;;;16.13;65.96
82458;BME280;72081;48.870;11.074;2023-08-31T08:51:20;97000.66;;;16.24;65.95
82458;BME280;72081;48.870;11.074;2023-08-31T08:53:46;97002.25;;;16.30;64.39
82458;BME280;72081;48.870;11.074;2023-08-31T08:56:12;97003.34;;;16.14;62.84
82458;BME280;72081;48.870;11.074;2023-08-31T08:58:38;96997.69;;;16.21;64.64
82458;BME280;72081;48.870;11.074;2023-08-31T09:01:03;97007.34;;;16.47;66.55
82458;BME280;72081;48.870;11.074;2023-08-31T09:03:29;96998.41;;;16.57;63.65
82458;BME280;72081;48.870;11.074;2023-08-31T09:05:54;97003.28;;;16.60;63.27
82458;BME280;72081;48.870;11.074;2023-08-31T09:08:27;97006.75;;;16.81;61.13
82458;BME280;72081;48.870;11.074;2023-08-31T09:10:55;96996.19;;;16.89;61.44
82458;BME280;72081;48.870;11.074;2023-08-31T09:13:20;97005.28;;;17.09;61.35
82458;BME280;72081;48.870;11.074;2023-08-31T09:15:47;96997.56;;;17.41;61.16
82458;BME280;72081;48.870;11.074;2023-08-31T09:20:52;97009.00;;;17.23;60.79
82458;BME280;72081;48.870;11.074;2023-08-31T09:23:18;97005.03;;;17.05;62.39
82458;BME280;72081;48.870;11.074;2023-08-31T09:25:48;97014.78;;;16.91;62.79
82458;BME280;72081;48.870;11.074;2023-08-31T09:28:15;97011.31;;;16.80;64.43
82458;BME280;72081;48.870;11.074;2023-08-31T09:30:42;97006.25;;;16.48;62.06
82458;BME280;72081;48.870;11.074;2023-08-31T09:33:09;97007.63;;;16.41;61.73
82458;BME280;72081;48.870;11.074;2023-08-31T09:35:42;97013.00;;;16.35;61.76
82458;BME280;72081;48.870;11.074;2023-08-31T09:38:11;97010.84;;;16.37;63.34
82458;BME280;72081;48.870;11.074;2023-08-31T09:40:37;97011.38;;;16.34;63.33
82458;BME280;72081;48.870;11.074;2023-08-31T09:43:03;97014.06;;;16.45;64.35
82458;BME280;72081;48.870;11.074;2023-08-31T09:45:33;97025.34;;;16.72;61.24
82458;BME280;72081;48.870;11.074;2023-08-31T09:48:00;97024.75;;;16.90;61.68
82458;BME280;72081;48.870;11.074;2023-08-31T09:50:28;97026.38;;;16.86;61.33
82458;BME280;72081;48.870;11.074;2023-08-31T09:52:55;97031.00;;;16.71;61.50
82458;BME280;72081;48.870;11.074;2023-08-31T09:55:25;97028.06;;;16.67;59.10
82458;BME280;72081;48.870;11.074;2023-08-31T09:57:51;97022.25;;;17.09;58.93
82458;BME280;72081;48.870;11.074;2023-08-31T10:00:18;97023.50;;;17.32;59.71
82458;BME280;72081;48.870;11.074;2023-08-31T10:02:44;97024.41;;;17.62;57.32
82458;BME280;72081;48.870;11.074;2023-08-31T10:05:10;97016.53;;;17.75;56.89
82458;BME280;72081;48.870;11.074;2023-08-31T10:07:36;97015.69;;;17.80;54.15
82458;BME280;72081;48.870;11.074;2023-08-31T10:10:02;97017.88;;;17.73;56.28
82458;BME280;72081;48.870;11.074;2023-08-31T10:12:27;97023.84;;;17.70;56.90
82458;BME280;72081;48.870;11.074;2023-08-31T10:14:54;97022.22;;;17.69;54.90
82458;BME280;72081;48.870;11.074;2023-08-31T10:17:20;97012.19;;;18.13;53.29
82458;BME280;72081;48.870;11.074;2023-08-31T10:19:46;97012.47;;;18.41;55.38
82458;BME280;72081;48.870;11.074;2023-08-31T10:22:12;97011.19;;;18.33;51.98
82458;BME280;72081;48.870;11.074;2023-08-31T10:25:03;97016.41;;;18.54;55.03
82458;BME280;72081;48.870;11.074;2023-08-31T10:27:36;97002.13;;;18.48;51.45
82458;BME280;72081;48.870;11.074;2023-08-31T10:32:40;97025.56;;;17.95;53.80
82458;BME280;72081;48.870;11.074;2023-08-31T10:35:08;97022.19;;;17.74;51.06
82458;BME280;72081;48.870;11.074;2023-08-31T10:37:34;97016.00;;;18.07;54.07
82458;BME280;72081;48.870;11.074;2023-08-31T10:40:10;97018.91;;;18.45;51.24
82458;BME280;72081;48.870;11.074;2023-08-31T10:42:45;97017.53;;;18.18;51.25
82458;BME280;72081;48.870;11.074;2023-08-31T10:45:13;97030.38;;;17.53;51.60
82458;BME280;72081;48.870;11.074;2023-08-31T10:47:41;97024.53;;;17.41;52.65
82458;BME280;72081;48.870;11.074;2023-08-31T10:50:20;97027.41;;;17.60;51.23
82458;BME280;72081;48.870;11.074;2023-08-31T10:52:46;97016.56;;;17.65;51.80
82458;BME280;72081;48.870;11.074;2023-08-31T10:55:12;97013.97;;;17.94;53.59
82458;BME280;72081;48.870;11.074;2023-08-31T10:57:37;97005.53;;;18.30;52.36
82458;BME280;72081;48.870;11.074;2023-08-31T11:00:05;97014.63;;;18.10;48.60
82458;BME280;72081;48.870;11.074;2023-08-31T11:02:36;97009.91;;;18.26;50.74
82458;BME280;72081;48.870;11.074;2023-08-31T11:05:06;97006.09;;;18.32;47.79
82458;BME280;72081;48.870;11.074;2023-08-31T11:07:33;97006.97;;;18.51;49.24
82458;BME280;72081;48.870;11.074;2023-08-31T11:10:10;97000.13;;;18.30;49.61
82458;BME280;72081;48.870;11.074;2023-08-31T11:12:37;97003.41;;;18.27;50.26
82458;BME280;72081;48.870;11.074;2023-08-31T11:15:03;96998.28;;;18.54;48.87
82458;BME280;72081;48.870;11.074;2023-08-31T11:18:10;97008.47;;;18.62;45.42
82458;BME280;72081;48.870;11.074;2023-08-31T11:20:35;97007.00;;;18.75;42.48
82458;BME280;72081;48.870;11.074;2023-08-31T11:23:01;97012.81;;;18.87;43.77
82458;BME280;72081;48.870;11.074;2023-08-31T11:25:30;97012.75;;;19.16;45.11
82458;BME280;72081;48.870;11.074;2023-08-31T11:28:01;96998.84;;;19.23;44.50
82458;BME280;72081;48.870;11.074;2023-08-31T11:30:29;97000.31;;;19.15;42.68
82458;BME280;72081;48.870;11.074;2023-08-31T11:33:02;97003.66;;;18.83;45.27
82458;BME280;72081;48.870;11.074;2023-08-31T11:35:32;97010.00;;;18.97;44.42
82458;BME280;72081;48.870;11.074;2023-08-31T11:37:58;97012.06;;;19.05;45.26
82458;BME280;72081;48.870;11.074;2023-08-31T11:40:26;97011.75;;;19.07;43.44
82458;BME280;72081;48.870;11.074;2023-08-31T11:42:51;97013.84;;;19.15;45.52
82458;BME280;72081;48.870;11.074;2023-08-31T11:45:18;97019.13;;;19.01;43.85
82458;BME280;72081;48.870;11.074;2023-08-31T11:47:43;97022.66;;;19.02;43.72
82458;BME280;72081;48.870;11.074;2023-08-31T11:50:11;97025.31;;;19.26;44.36
82458;BME280;72081;48.870;11.074;2023-08-31T11:52:39;97019.63;;;19.70;46.05
82458;BME280;72081;48.870;11.074;2023-08-31T11:55:10;97019.66;;;19.65;45.40
82458;BME280;72081;48.870;11.074;2023-08-31T11:57:37;97018.72;;;19.75;44.15
82458;BME280;72081;48.870;11.074;2023-08-31T12:00:03;97009.28;;;19.91;43.59
82458;BME280;72081;48.870;11.074;2023-08-31T12:02:34;97009.63;;;20.03;43.59
82458;BME280;72081;48.870;11.074;2023-08-31T12:05:00;97009.41;;;19.99;44.42
82458;BME280;72081;48.870;11.074;2023-08-31T12:07:25;97007.00;;;19.98;43.34
82458;BME280;72081;48.870;11.074;2023-08-31T12:09:50;97011.47;;;19.89;43.85
82458;BME280;72081;48.870;11.074;2023-08-31T12:12:20;97008.66;;;20.13;46.12
82458;BME280;72081;48.870;11.074;2023-08-31T12:14:45;97010.47;;;20.17;45.75
82458;BME280;72081;48.870;11.074;2023-08-31T12:17:11;97008.47;;;20.23;42.91
82458;BME280;72081;48.870;11.074;2023-08-31T12:19:37;97016.00;;;20.45;43.92
82458;BME280;72081;48.870;11.074;2023-08-31T12:22:04;97007.66;;;20.55;43.31
82458;BME280;72081;48.870;11.074;2023-08-31T12:24:29;97016.31;;;20.57;42.15
82458;BME280;72081;48.870;11.074;2023-08-31T12:27:01;97011.88;;;20.47;43.94
82458;BME280;72081;48.870;11.074;2023-08-31T12:29:27;97020.84;;;19.78;46.31
82458;BME280;72081;48.870;11.074;2023-08-31T12:31:52;97010.13;;;20.05;43.98
82458;BME280;72081;48.870;11.074;2023-08-31T12:34:17;97012.75;;;20.10;46.53
82458;BME280;72081;48.870;11.074;2023-08-31T12:36:42;97016.16;;;19.64;46.41
82458;BME280;72081;48.870;11.074;2023-08-31T12:39:09;97013.50;;;19.40;48.32
82458;BME280;72081;48.870;11.074;2023-08-31T12:41:38;97013.53;;;19.17;46.68
82458;BME280;72081;48.870;11.074;2023-08-31T12:44:03;97015.28;;;19.07;48.43
82458;BME280;72081;48.870;11.074;2023-08-31T12:46:30;97009.25;;;18.92;48.30
82458;BME280;72081;48.870;11.074;2023-08-31T12:48:55;97015.50;;;18.87;47.16
82458;BME280;72081;48.870;11.074;2023-08-31T12:51:21;97014.84;;;18.76;48.73
82458;BME280;72081;48.870;11.074;2023-08-31T12:53:46;97020.91;;;18.63;48.13
82458;BME280;72081;48.870;11.074;2023-08-31T12:56:12;97025.03;;;18.56;49.92
82458;BME280;72081;48.870;11.074;2023-08-31T12:58:37;97028.63;;;18.99;47.77
82458;BME280;72081;48.870;11.074;2023-08-31T13:01:03;97028.34;;;19.00;47.74
82458;BME280;72081;48.870;11.074;2023-08-31T13:03:29;97034.13;;;19.36;47.65
82458;BME280;72081;48.870;11.074;2023-08-31T13:05:54;97034.63;;;19.38;48.08
82458;BME280;72081;48.870;11.074;2023-08-31T13:08:19;97021.31;;;19.42;47.55
82458;BME280;72081;48.870;11.074;2023-08-31T13:10:51;97027.78;;;20.02;46.11